Flight Track Log - Related Links

Times and Time Zones

All times are in EDT time to prevent confusion due to time zone crossing. See the UAL363 flight status page for this flight to view local times or setup timezone preferences in your user account.

Time Position Orientation Groundspeed Altitude Reporting Facility
EDT Latitude Longitude Course Direction KTS MPH feet Rate Location/Type
Wed 01:19:30 PM 39.9500 -104.7000 37° Northeast 224 258 8,100  Level Denver TRACON
Wed 01:20:30 PM 40.0000 -104.6500 37° Northeast 267 307 9,900 1,979 Climbing Denver TRACON
Wed 01:21:00 PM 40.0601 -104.3767 323° Northwest  Level FlightAware Approximate
Wed 01:21:07 PM 40.0392 -104.6006 44° Northeast 278 320 11,300  Level Denver Center
Wed 01:21:30 PM 40.0667 -104.5833 26° Northeast 307 353 11,700 1,301 Climbing Denver TRACON
Wed 01:22:00 PM 40.1589 -104.4755 323° Northwest  Level FlightAware Approximate
Wed 01:22:30 PM 40.1500 -104.5167 31° Northeast 373 429 13,100  Level Denver TRACON
Wed 01:23:00 PM 40.2769 -104.5000 North  Level FlightAware Approximate
Wed 01:23:11 PM 40.2219 -104.4747 24° Northeast 385 443 14,600  Level Denver Center
Wed 01:24:00 PM 40.3736 -104.4098 37° Northeast  Level FlightAware Approximate
Wed 01:24:13 PM 40.3208 -104.4067 28° Northeast 403 464 16,500  Level Denver Center
Wed 01:25:15 PM 40.4300 -104.3372 26° Northeast 433 498 18,100 1,790 Climbing Denver Center
Wed 01:26:17 PM 40.5464 -104.2553 28° Northeast 440 506 20,200 1,839 Climbing Denver Center
Wed 01:27:19 PM 40.6481 -104.1497 38° Northeast 462 532 21,900 1,500 Climbing Denver Center
Wed 01:28:21 PM 40.7533 -104.0142 44° Northeast 480 552 23,300 1,548 Climbing Denver Center
Wed 01:29:23 PM 40.8567 -103.8822 44° Northeast 510 587 25,100 1,597 Climbing Denver Center
Wed 01:30:25 PM 40.9622 -103.7450 44° Northeast 525 604 26,600 1,403 Climbing Denver Center
Wed 01:31:27 PM 41.0722 -103.6017 44° Northeast 533 613 28,000 1,210 Climbing Denver Center
Wed 01:32:29 PM 41.1719 -103.4619 47° Northeast 544 626 29,100 1,306 Climbing Denver Center
Wed 01:33:31 PM 41.2322 -103.2511 69° East 551 634 30,700 1,452 Climbing Denver Center
Wed 01:34:33 PM 41.2603 -103.0639 79° East 542 624 32,100 1,113 Climbing Denver Center
Wed 01:35:35 PM 41.2928 -102.8489 79° East 534 615 33,000 439 Climbing Denver Center
Wed 01:36:36 PM 41.3214 -102.6656 78° East 529 609 33,000  Level Denver Center
Wed 01:37:38 PM 41.3494 -102.4700 79° East 524 603 33,000  Level Denver Center
Wed 01:38:40 PM 41.3808 -102.2567 79° East 526 605 33,000  Level Denver Center
Wed 01:39:42 PM 41.4108 -102.0708 78° East 533 613 33,000  Level Denver Center
Wed 01:40:44 PM 41.4483 -101.8567 77° East 531 611 33,000  Level Denver Center
Wed 01:41:46 PM 41.4803 -101.6692 77° East 539 620 33,000  Level Denver Center
Wed 01:42:48 PM 41.5128 -101.4819 77° East 540 621 33,000  Level Denver Center
Wed 01:43:50 PM 41.5483 -101.2650 78° East 536 617 33,000  Level Denver Center
Wed 01:44:52 PM 41.5783 -101.0803 78° East 530 610 33,000  Level Denver Center
Wed 01:45:54 PM 41.6122 -100.8661 78° East 526 605 33,000  Level Denver Center
Wed 01:46:56 PM 41.6406 -100.6822 78° East 526 605 33,000  Level Denver Center
Wed 01:47:58 PM 41.6753 -100.4697 78° East 523 602 33,000  Level Denver Center
Wed 01:49:00 PM 41.7031 -100.2861 78° East 524 603 33,000  Level Denver Center
Wed 01:50:02 PM 41.7314 -100.1000 78° East 528 608 33,000  Level Denver Center
Wed 01:51:04 PM 41.7633 -99.8844 79° East 529 609 33,000  Level Denver Center
Wed 01:52:06 PM 41.7944 -99.6828 78° East 530 610 33,000  Level Denver Center
Wed 01:53:08 PM 41.8233 -99.4878 79° East 530 610 33,000  Level Denver Center
Wed 01:54:10 PM 41.8519 -99.2917 79° East 532 612 33,000 194 Level Denver Center
Wed 01:55:12 PM 41.8803 -99.0967 79° East 531 611 33,400 832 Climbing Denver Center
Wed 01:55:51 PM 41.8978 -98.9803 79° East 530 610 34,400 1,545 Climbing Minneapolis Center
Wed 01:56:53 PM 41.9247 -98.7903 79° East 519 597 36,000 1,171 Climbing Minneapolis Center
Wed 01:57:54 PM 41.9550 -98.5633 80° East 513 590 36,800 488 Climbing Minneapolis Center
Wed 01:58:56 PM 41.9817 -98.3733 79° East 514 592 37,000 96 Climbing Minneapolis Center
Wed 01:59:59 PM 42.0069 -98.1850 80° East 512 589 37,000  Level Minneapolis Center
Wed 02:01:01 PM 42.0297 -98.0075 80° East 503 579 37,000  Level Minneapolis Center
Wed 02:02:02 PM 42.0547 -97.8239 80° East 501 577 37,000  Level Minneapolis Center
Wed 02:03:04 PM 42.0797 -97.6403 80° East 498 573 37,000  Level Minneapolis Center
Wed 02:04:06 PM 42.1042 -97.4547 80° East 500 575 37,000  Level Minneapolis Center
Wed 02:05:07 PM 42.1317 -97.2336 80° East 499 574 37,000  Level Minneapolis Center
Wed 02:06:09 PM 42.1553 -97.0506 80° East 497 572 37,000  Level Minneapolis Center
Wed 02:07:11 PM 42.1772 -96.8664 81° East 496 571 37,000  Level Minneapolis Center
Wed 02:08:12 PM 42.1997 -96.6833 81° East 495 570 37,000  Level Minneapolis Center
Wed 02:09:14 PM 42.2164 -96.5372 81° East 492 566 37,000  Level Minneapolis Center
Wed 02:10:16 PM 42.2436 -96.3183 80° East 492 566 37,000  Level Minneapolis Center
Wed 02:11:18 PM 42.2644 -96.1347 81° East 492 566 37,000  Level Minneapolis Center
Wed 02:12:19 PM 42.2842 -95.9519 82° East 491 565 37,000  Level Minneapolis Center
Wed 02:13:21 PM 42.3044 -95.7686 81° East 491 565 37,000  Level Minneapolis Center
Wed 02:14:23 PM 42.3294 -95.5506 81° East 490 564 37,000  Level Minneapolis Center
Wed 02:15:24 PM 42.3492 -95.3700 82° East 487 560 37,000  Level Minneapolis Center
Wed 02:16:38 PM 42.3678 -95.1903 82° East 484 557 37,000  Level Minneapolis Center
Wed 02:17:40 PM 42.3908 -94.9736 82° East 483 556 37,000  Level Minneapolis Center
Wed 02:18:42 PM 42.4100 -94.7925 82° East 485 558 37,000  Level Minneapolis Center
Wed 02:19:43 PM 42.4286 -94.6111 82° East 486 559 37,000  Level Minneapolis Center
Wed 02:20:45 PM 42.4456 -94.4294 83° East 485 558 37,000  Level Minneapolis Center
Wed 02:21:47 PM 42.4628 -94.2486 83° East 485 558 37,000  Level Minneapolis Center
Wed 02:22:49 PM 42.4817 -94.0650 82° East 482 555 37,000  Level Minneapolis Center
Wed 02:23:50 PM 42.5028 -93.8519 82° East 480 552 37,000  Level Minneapolis Center
Wed 02:24:52 PM 42.5192 -93.6728 83° East 482 555 37,000  Level Minneapolis Center
Wed 02:25:54 PM 42.5350 -93.4947 83° East 482 555 37,000  Level Minneapolis Center
Wed 02:26:55 PM 42.5522 -93.3197 82° East 475 547 37,000  Level Minneapolis Center
Wed 02:27:57 PM 42.5675 -93.1425 83° East 476 548 37,000  Level Minneapolis Center
Wed 02:28:59 PM 42.5842 -92.9672 83° East 475 547 37,000  Level Minneapolis Center
Wed 02:30:00 PM 42.6019 -92.7556 83° East 475 547 37,000  Level Minneapolis Center
Wed 02:31:02 PM 42.6172 -92.5781 83° East 476 548 37,000  Level Minneapolis Center
Wed 02:32:04 PM 42.6325 -92.4028 83° East 475 547 37,000  Level Minneapolis Center
Wed 02:33:06 PM 42.6464 -92.2278 84° East 472 543 37,000  Level Minneapolis Center
Wed 02:34:07 PM 42.6606 -92.0544 84° East 469 540 37,000  Level Minneapolis Center
Wed 02:35:09 PM 42.6764 -91.8469 84° East 467 537 37,000  Level Minneapolis Center
Wed 02:36:23 PM 42.6911 -91.6453 84° East 469 540 37,000  Level Minneapolis Center
Wed 02:37:25 PM 42.7025 -91.4725 85° East 470 541 37,000  Level Minneapolis Center
Wed 02:37:59 PM 42.7119 -91.3731 83° East 470 541 37,000  Level Chicago Center
Wed 02:39:01 PM 42.7233 -91.2008 85° East 467 537 37,000  Level Chicago Center
Wed 02:40:03 PM 42.7392 -90.9939 84° East 465 535 37,000  Level Chicago Center
Wed 02:41:05 PM 42.7497 -90.8222 85° East 461 531 37,000  Level Chicago Center
Wed 02:42:07 PM 42.7619 -90.6508 84° East 460 529 37,000  Level Chicago Center
Wed 02:43:09 PM 42.7728 -90.4783 85° East 461 531 37,000  Level Chicago Center
Wed 02:44:11 PM 42.7844 -90.3075 85° East 459 528 37,000  Level Chicago Center
Wed 02:45:13 PM 42.7978 -90.1008 85° East 460 529 37,000  Level Chicago Center
Wed 02:46:15 PM 42.8069 -89.9297 86° East 458 527 37,000  Level Chicago Center
Wed 02:47:17 PM 42.8172 -89.7644 85° East 456 525 37,000  Level Chicago Center
Wed 02:48:19 PM 42.8286 -89.5606 86° East 460 529 37,000  Level Chicago Center
Wed 02:49:21 PM 42.8389 -89.3881 85° East 457 526 37,000  Level Chicago Center
Wed 02:50:23 PM 42.8481 -89.2142 86° East 459 528 37,000  Level Chicago Center
Wed 02:51:26 PM 42.8572 -89.0411 86° East 459 528 37,000  Level Chicago Center
Wed 02:52:28 PM 42.8664 -88.8681 86° East 460 529 37,000  Level Chicago Center
Wed 02:53:30 PM 42.8764 -88.6644 86° East 462 532 37,000  Level Chicago Center
Wed 02:54:32 PM 42.8847 -88.4911 86° East 461 531 37,000  Level Chicago Center
Wed 02:55:34 PM 42.8939 -88.3175 86° East 463 533 37,000  Level Chicago Center
Wed 02:56:36 PM 42.9022 -88.1439 86° East 462 532 37,000  Level Chicago Center
Wed 02:57:38 PM 42.9114 -87.9408 86° East 463 533 37,000  Level Chicago Center
Wed 02:58:40 PM 42.9169 -87.7675 87° East 460 529 37,000  Level Chicago Center
Wed 02:59:42 PM 42.9239 -87.5944 87° East 459 528 37,000  Level Chicago Center
Wed 03:00:44 PM 42.9319 -87.4203 86° East 462 532 37,000  Level Chicago Center
Wed 03:01:46 PM 42.9400 -87.2317 87° East 458 527 37,000  Level Chicago Center
Wed 03:02:49 PM 42.9456 -87.0572 87° East 461 531 37,000  Level Chicago Center
Wed 03:03:51 PM 42.9519 -86.8847 87° East 458 527 37,000  Level Chicago Center
Wed 03:04:53 PM 42.9578 -86.7106 87° East 461 531 37,000  Level Chicago Center
Wed 03:05:55 PM 42.9631 -86.5369 88° East 460 529 37,000  Level Chicago Center
Wed 03:06:57 PM 42.9689 -86.3300 88° East 458 527 37,000  Level Chicago Center
Wed 03:07:59 PM 42.9731 -86.1589 88° East 456 525 37,000  Level Chicago Center
Wed 03:09:01 PM 42.9783 -85.9764 88° East 457 526 37,000  Level Chicago Center
Wed 03:10:03 PM 42.9822 -85.7881 88° East 459 528 37,000  Level Chicago Center
Wed 03:11:05 PM 42.9872 -85.6181 88° East 455 524 37,000  Level Chicago Center
Wed 03:12:07 PM 42.9911 -85.4478 88° East 453 521 37,000  Level Chicago Center
Wed 03:13:09 PM 42.9950 -85.2783 88° East 449 517 37,000  Level Chicago Center
Wed 03:14:12 PM 42.9975 -85.1092 89° East 448 516 37,000  Level Chicago Center
Wed 03:15:14 PM 43.0017 -84.9392 88° East 448 516 37,000  Level Chicago Center
Wed 03:16:16 PM 43.0058 -84.7367 88° East 447 514 37,000  Level Chicago Center
Wed 03:17:18 PM 43.0072 -84.5672 89° East 447 514 37,000  Level Chicago Center
Wed 03:18:20 PM 43.0097 -84.3983 89° East 446 513 37,000  Level Chicago Center
Wed 03:18:57 PM 43.0094 -84.2800 90° East 438 504 37,000  Level Cleveland Center
Wed 03:19:57 PM 43.0097 -84.1439 90° East 438 504 37,000  Level Cleveland Center
Wed 03:20:57 PM 43.0111 -83.9594 89° East 438 504 37,000  Level Cleveland Center
Wed 03:21:57 PM 43.0117 -83.7889 90° East 438 504 37,000  Level Cleveland Center
Wed 03:22:57 PM 43.0122 -83.6186 90° East 438 504 37,000  Level Cleveland Center
Wed 03:23:57 PM 43.0144 -83.4483 89° East 438 504 37,000  Level Cleveland Center
Wed 03:24:57 PM 43.0142 -83.2808 90° East 438 504 37,000  Level Cleveland Center
Wed 03:25:57 PM 43.0142 -83.1075 90° East 438 504 37,000  Level Cleveland Center
Wed 03:26:57 PM 43.0133 -82.9400 90° East 443 510 37,000  Level Cleveland Center
Wed 03:27:57 PM 43.0128 -82.7667 90° East 438 504 37,000  Level Cleveland Center
Wed 03:28:57 PM 43.0117 -82.5933 90° East 438 504 37,000  Level Cleveland Center
Wed 03:29:57 PM 43.0125 -82.4231 90° East 438 504 37,000  Level Cleveland Center
Wed 03:31:06 PM 43.0000 -82.2167 95° East 450 518 37,000  Level Toronto Center
Wed 03:32:06 PM 42.9833 -82.0333 97° East 450 518 37,000  Level Toronto Center
Wed 03:33:06 PM 43.0000 -81.8667 82° East 450 518 37,000  Level Toronto Center
Wed 03:34:06 PM 43.0000 -81.6833 90° East 450 518 37,000  Level Toronto Center
Wed 03:35:06 PM 42.9833 -81.5167 98° East 450 518 37,000  Level Toronto Center
Wed 03:36:06 PM 42.9833 -81.3500 90° East 450 518 37,000  Level Toronto Center
Wed 03:37:06 PM 42.9833 -81.1667 90° East 450 518 37,000  Level Toronto Center
Wed 03:38:06 PM 42.9833 -81.0000 90° East 450 518 37,000  Level Toronto Center
Wed 03:39:06 PM 42.9667 -80.8167 97° East 450 518 37,000  Level Toronto Center
Wed 03:40:06 PM 42.9833 -80.6667 81° East 450 518 37,000  Level Toronto Center
Wed 03:41:06 PM 42.9833 -80.4833 90° East 450 518 37,000  Level Toronto Center
Wed 03:42:06 PM 42.9667 -80.3167 98° East 460 529 37,000  Level Toronto Center
Wed 03:43:06 PM 42.9667 -80.1333 90° East 450 518 37,000  Level Toronto Center
Wed 03:44:06 PM 42.9667 -79.9667 90° East 450 518 37,000  Level Toronto Center
Wed 03:45:06 PM 42.9500 -79.8000 98° East 450 518 37,000  Level Toronto Center
Wed 03:46:06 PM 42.9500 -79.6167 90° East 450 518 37,000  Level Toronto Center
Wed 03:47:06 PM 42.9500 -79.4500 90° East 450 518 37,000  Level Toronto Center
Wed 03:48:06 PM 42.9500 -79.2833 90° East 450 518 37,000  Level Toronto Center
Wed 03:49:06 PM 42.9333 -79.1167 98° East 450 518 37,000  Level Toronto Center
Wed 03:50:06 PM 42.9333 -78.9500 90° East 450 518 37,000  Level Toronto Center
Wed 03:51:06 PM 42.9333 -78.7667 90° East 440 506 37,000  Level Toronto Center
Wed 03:51:22 PM 42.9333 -78.7514 90° East 445 512 37,000  Level Cleveland Center
Wed 03:52:22 PM 42.9264 -78.5842 93° East 440 506 37,000  Level Cleveland Center
Wed 03:53:22 PM 42.9233 -78.4169 91° East 440 506 37,000  Level Cleveland Center
Wed 03:54:22 PM 42.9181 -78.2500 92° East 440 506 37,000  Level Cleveland Center
Wed 03:55:22 PM 42.9147 -78.0856 92° East 440 506 37,000  Level Cleveland Center
Wed 03:56:22 PM 42.9131 -77.9183 91° East 440 506 37,000  Level Cleveland Center
Wed 03:57:22 PM 42.9094 -77.7711 92° East 440 506 37,000  Level Cleveland Center
Wed 03:59:02 PM 42.9044 -77.5094 91° East 464 534 37,000  Level Boston Center
Wed 04:00:02 PM 42.8983 -77.3133 92° East 446 513 37,000  Level Boston Center
Wed 04:01:02 PM 42.8928 -77.1511 93° East 435 501 37,000  Level Boston Center
Wed 04:02:02 PM 42.8892 -76.9836 92° East 435 501 37,000  Level Boston Center
Wed 04:03:02 PM 42.8831 -76.8214 93° East 430 495 37,000  Level Boston Center
Wed 04:04:02 PM 42.8786 -76.6597 92° East 430 495 37,000 -50 Level Boston Center
Wed 04:05:02 PM 42.8736 -76.5119 93° East 430 495 36,900 -50 Descending Boston Center
Wed 04:06:02 PM 42.8647 -76.3497 94° East 430 495 36,900 50 Level Boston Center
Wed 04:07:02 PM 42.8556 -76.1875 94° East 430 495 37,000 50 Climbing Boston Center
Wed 04:08:02 PM 42.8461 -76.0256 94° East 425 489 37,000 -50 Level Boston Center
Wed 04:09:02 PM 42.8367 -75.8636 94° East 425 489 36,900 -45 Descending Boston Center
Wed 04:10:14 PM 42.8269 -75.6958 94° East 430 495 36,900  Level Boston Center
Wed 04:11:14 PM 42.8156 -75.5000 94° East 430 495 36,900 50 Level Boston Center
Wed 04:12:14 PM 42.8033 -75.3381 96° East 425 489 37,000  Climbing Boston Center
Wed 04:13:14 PM 42.7928 -75.1761 95° East 425 489 36,900  Descending Boston Center
Wed 04:14:14 PM 42.7817 -75.0172 95° East 425 489 37,000 50 Climbing Boston Center
Wed 04:15:14 PM 42.7708 -74.8528 95° East 425 489 37,000 -50 Level Boston Center
Wed 04:16:14 PM 42.7594 -74.6911 95° East 425 489 36,900 -50 Descending Boston Center
Wed 04:17:14 PM 42.7500 -74.5325 95° East 425 489 36,900  Level Boston Center
Wed 04:18:14 PM 42.7383 -74.3708 96° East 425 489 36,900 50 Level Boston Center
Wed 04:19:14 PM 42.7244 -74.1922 96° East 425 489 37,000 50 Climbing Boston Center
Wed 04:20:14 PM 42.7144 -74.0367 95° East 425 489 37,000 -50 Level Boston Center
Wed 04:21:14 PM 42.6997 -73.8781 97° East 425 489 36,900  Descending Boston Center
Wed 04:22:14 PM 42.6931 -73.7508 94° East 425 489 37,000 50 Climbing Boston Center
Wed 04:23:14 PM 42.6803 -73.5642 95° East 418 481 37,000  Level Boston Center
Wed 04:24:14 PM 42.6672 -73.4058 96° East 418 481 37,000  Level Boston Center
Wed 04:25:14 PM 42.6558 -73.2503 96° East 418 481 37,000 -545 Level Boston Center
Wed 04:26:26 PM 42.6425 -73.0864 96° East 424 488 35,800 -1,182 Descending Boston Center
Wed 04:27:26 PM 42.6225 -72.8803 97° East 445 512 34,400 -1,250 Descending Boston Center
Wed 04:28:26 PM 42.6083 -72.7194 97° East 445 512 33,300 -1,550 Descending Boston Center
Wed 04:29:26 PM 42.5942 -72.5586 97° East 439 505 31,300 -2,500 Descending Boston Center
Wed 04:30:26 PM 42.5797 -72.3922 97° East 446 513 28,300 -3,150 Descending Boston Center
Wed 04:31:26 PM 42.5650 -72.2314 97° East 439 505 25,000 -3,700 Descending Boston Center
Wed 04:32:26 PM 42.5500 -72.0794 98° East 427 491 20,900 -3,600 Descending Boston Center
Wed 04:33:26 PM 42.5369 -71.9442 97° East 404 465 17,800 -3,450 Descending Boston Center
Wed 04:34:26 PM 42.5236 -71.7894 97° East 383 441 14,000 -3,100 Descending Boston Center
Wed 04:35:26 PM 42.5103 -71.6683 98° East 367 422 11,600 -2,043 Descending Boston Center
Wed 04:36:00 PM 42.5000 -71.5833 99° East 355 409 10,800 -1,085 Descending KA90
Wed 04:37:00 PM 42.4833 -71.4500 100° East 325 374 9,900 -700 Descending KA90
Wed 04:38:00 PM 42.4833 -71.3500 90° East 287 330 9,400 -571 Descending KA90
Wed 04:39:06 PM 42.4667 -71.2333 101° East 247 284 8,700 -762 Descending KA90
Wed 04:40:06 PM 42.4667 -71.1500 90° East 232 267 7,800 -887 Descending KA90
Wed 04:41:01 PM 42.4500 -71.0833 109° East 223 257 7,000 -421 Descending KA90
Wed 04:42:00 PM 42.4333 -71.0167 109° East 223 257 7,000 -252 Level KA90
Wed 04:43:00 PM 42.3667 -70.9667 151° Southeast 232 267 6,500 -500 Descending KA90
Wed 04:44:00 PM 42.3167 -70.9333 154° Southeast 232 267 6,000 -248 Descending KA90
Wed 04:45:01 PM 42.2500 -70.9667 200° South 240 276 6,000  Level KA90
Wed 04:46:00 PM 42.1833 -70.9833 190° South 240 276 6,000 -150 Level KA90
Wed 04:47:01 PM 42.1167 -71.0167 200° South 241 277 5,700 -645 Descending KA90
Wed 04:48:01 PM 42.1000 -71.0833 251° West 231 266 4,700 -800 Descending KA90
Wed 04:49:01 PM 42.1667 -71.1000 350° North 212 244 4,100 -600 Descending KA90

Login

Don't have an account? Register now (free) for customized features, flight alerts, and more!